createdAt,value
2022-10-03T00:01:27.140Z,14.90
2022-10-03T00:04:07.560Z,14.90
2022-10-03T00:06:49.026Z,14.90
2022-10-03T00:09:36.778Z,14.80
2022-10-03T00:12:18.696Z,14.80
2022-10-03T00:14:58.104Z,14.80
2022-10-03T00:17:39.066Z,14.80
2022-10-03T00:20:17.201Z,14.80
2022-10-03T00:22:54.715Z,14.70
2022-10-03T00:25:30.956Z,14.70
2022-10-03T00:28:11.067Z,14.70
2022-10-03T00:30:55.546Z,14.70
2022-10-03T00:33:34.066Z,14.70
2022-10-03T00:36:08.731Z,14.70
2022-10-03T00:39:00.627Z,14.70
2022-10-03T00:41:53.749Z,14.70
2022-10-03T00:44:50.431Z,14.70
2022-10-03T00:47:47.785Z,14.70
2022-10-03T00:50:38.655Z,14.70
2022-10-03T00:53:24.662Z,14.60
2022-10-03T00:56:07.675Z,14.60
2022-10-03T00:58:56.865Z,14.70
2022-10-03T01:01:35.485Z,14.60
2022-10-03T01:04:17.789Z,14.60
2022-10-03T01:06:57.326Z,14.60
2022-10-03T01:09:38.221Z,14.60
2022-10-03T01:12:19.009Z,14.60
2022-10-03T01:15:05.129Z,14.60
2022-10-03T01:17:47.325Z,14.50
2022-10-03T01:20:24.168Z,14.50
2022-10-03T01:23:14.997Z,14.50
2022-10-03T01:25:52.112Z,14.50
2022-10-03T01:29:01.144Z,14.50
2022-10-03T01:31:35.859Z,14.50
2022-10-03T01:34:12.851Z,14.50
2022-10-03T01:36:49.856Z,14.40
2022-10-03T01:39:27.800Z,14.50
2022-10-03T01:42:00.999Z,14.40
2022-10-03T01:44:40.485Z,14.40
2022-10-03T01:47:30.388Z,14.40
2022-10-03T01:50:05.508Z,14.40
2022-10-03T01:52:42.320Z,14.40
2022-10-03T01:55:21.647Z,14.40
2022-10-03T01:57:55.866Z,14.30
2022-10-03T02:00:26.967Z,14.30
2022-10-03T02:03:03.751Z,14.30
2022-10-03T02:05:42.721Z,14.30
2022-10-03T02:08:25.296Z,14.30
2022-10-03T02:11:00.572Z,14.30
2022-10-03T02:13:42.185Z,14.30
2022-10-03T02:16:21.543Z,14.20
2022-10-03T02:18:55.954Z,14.20
2022-10-03T02:21:26.900Z,14.20
2022-10-03T02:24:18.843Z,14.30
2022-10-03T02:27:21.222Z,14.20
2022-10-03T02:30:11.723Z,14.20
2022-10-03T02:33:16.231Z,14.20
2022-10-03T02:36:12.171Z,14.20
2022-10-03T02:39:02.901Z,14.10
2022-10-03T02:42:02.987Z,14.20
2022-10-03T02:45:10.328Z,14.10
2022-10-03T02:48:31.336Z,14.10
2022-10-03T02:51:22.723Z,14.10
2022-10-03T02:54:26.999Z,14.10
2022-10-03T02:57:43.135Z,14.00
2022-10-03T03:00:15.352Z,14.00
2022-10-03T03:03:17.202Z,14.00
2022-10-03T03:06:21.819Z,14.00
2022-10-03T03:09:29.367Z,14.00
2022-10-03T03:12:40.442Z,14.00
2022-10-03T03:15:39.358Z,14.00
2022-10-03T03:18:16.054Z,14.00
2022-10-03T03:21:04.159Z,14.00
2022-10-03T03:23:50.531Z,14.00
2022-10-03T03:26:43.139Z,13.90
2022-10-03T03:29:22.044Z,13.90
2022-10-03T03:31:56.039Z,13.90
2022-10-03T03:34:32.162Z,13.90
2022-10-03T03:37:05.424Z,13.90
2022-10-03T03:39:49.448Z,14.20
2022-10-03T03:42:45.511Z,13.90
2022-10-03T03:45:30.449Z,13.90
2022-10-03T03:48:12.158Z,13.90
2022-10-03T03:50:49.102Z,13.90
2022-10-03T03:53:49.740Z,13.90
2022-10-03T03:56:48.341Z,13.90
2022-10-03T03:59:30.814Z,13.90
2022-10-03T04:02:09.073Z,13.90
2022-10-03T04:04:57.180Z,13.90
2022-10-03T04:07:40.717Z,13.90
2022-10-03T04:10:18.787Z,13.90
2022-10-03T04:13:03.669Z,13.80
2022-10-03T04:15:59.607Z,13.80
2022-10-03T04:18:58.163Z,13.80
2022-10-03T04:21:51.772Z,13.80
2022-10-03T04:24:48.844Z,13.80
2022-10-03T04:27:43.286Z,13.80
2022-10-03T04:30:15.726Z,13.80
2022-10-03T04:33:07.209Z,13.80
2022-10-03T04:36:09.782Z,13.80
2022-10-03T04:38:50.238Z,13.80
2022-10-03T04:41:28.661Z,13.80
2022-10-03T04:44:08.649Z,13.80
2022-10-03T04:46:46.431Z,13.80
2022-10-03T04:49:23.939Z,13.80
2022-10-03T04:52:04.020Z,13.80
2022-10-03T04:54:51.077Z,13.80
2022-10-03T04:57:29.948Z,13.80
2022-10-03T05:00:12.232Z,13.80
2022-10-03T05:02:56.805Z,13.80
2022-10-03T05:05:46.745Z,13.80
2022-10-03T05:08:24.126Z,13.80
2022-10-03T05:11:22.835Z,13.80
2022-10-03T05:14:01.139Z,13.70
2022-10-03T05:16:42.306Z,13.80
2022-10-03T05:19:38.948Z,13.70
2022-10-03T05:22:23.840Z,13.70
2022-10-03T05:25:03.288Z,13.70
2022-10-03T05:27:41.938Z,13.70
2022-10-03T05:30:16.723Z,13.70
2022-10-03T05:32:53.064Z,13.70
2022-10-03T05:35:35.368Z,13.70
2022-10-03T05:38:34.155Z,13.70
2022-10-03T05:41:06.152Z,13.60
2022-10-03T05:43:58.355Z,13.70
2022-10-03T05:46:51.291Z,13.70
2022-10-03T05:49:40.364Z,13.60
2022-10-03T05:52:27.523Z,13.70
2022-10-03T05:55:11.740Z,13.70
2022-10-03T05:58:12.857Z,13.70
2022-10-03T06:01:01.819Z,13.60
2022-10-03T06:03:51.877Z,13.70
2022-10-03T06:06:27.159Z,13.90
2022-10-03T06:09:29.420Z,13.70
2022-10-03T06:12:10.168Z,13.70
2022-10-03T06:15:15.575Z,13.70
2022-10-03T06:17:58.826Z,13.70
2022-10-03T06:21:10.971Z,13.70
2022-10-03T06:23:53.697Z,13.70
2022-10-03T06:26:51.729Z,13.70
2022-10-03T06:29:57.650Z,13.70
2022-10-03T06:33:10.217Z,13.70
2022-10-03T06:36:17.763Z,13.70
2022-10-03T06:39:26.615Z,13.70
2022-10-03T06:42:37.955Z,13.70
2022-10-03T06:46:01.914Z,13.70
2022-10-03T06:48:49.152Z,13.70
2022-10-03T06:51:47.899Z,13.70
2022-10-03T06:54:45.997Z,13.70
2022-10-03T06:57:35.583Z,13.70
2022-10-03T07:00:13.401Z,13.70
2022-10-03T07:03:19.168Z,13.70
2022-10-03T07:06:16.594Z,13.70
2022-10-03T07:09:21.105Z,13.70
2022-10-03T07:12:33.990Z,13.80
2022-10-03T07:15:50.157Z,13.80
2022-10-03T07:19:05.986Z,13.80
2022-10-03T07:22:30.918Z,13.80
2022-10-03T07:25:47.932Z,13.80
2022-10-03T07:28:48.787Z,13.80
2022-10-03T07:31:29.025Z,13.80
2022-10-03T07:34:29.763Z,13.80
2022-10-03T07:37:41.354Z,13.80
2022-10-03T07:40:40.279Z,13.80
2022-10-03T07:43:48.532Z,13.90
2022-10-03T07:46:57.365Z,13.90
2022-10-03T07:50:07.013Z,13.90
2022-10-03T07:53:08.794Z,13.90
2022-10-03T07:55:52.019Z,13.90
2022-10-03T07:58:56.011Z,13.90
2022-10-03T08:01:49.226Z,14.00
2022-10-03T08:05:00.008Z,14.00
2022-10-03T08:07:51.823Z,14.00
2022-10-03T08:11:07.213Z,14.00
2022-10-03T08:13:56.247Z,14.00
2022-10-03T08:16:42.365Z,14.00
2022-10-03T08:19:29.800Z,14.00
2022-10-03T08:22:09.654Z,14.10
2022-10-03T08:25:11.457Z,14.00
2022-10-03T08:28:02.139Z,14.10
2022-10-03T08:30:44.799Z,14.10
2022-10-03T08:33:32.581Z,14.10
2022-10-03T08:36:31.873Z,14.10
2022-10-03T08:39:12.702Z,14.20
2022-10-03T08:42:17.679Z,14.10
2022-10-03T08:45:44.800Z,14.20
2022-10-03T08:48:46.677Z,14.20
2022-10-03T08:51:44.431Z,14.20
2022-10-03T08:54:47.894Z,14.20
2022-10-03T08:57:59.586Z,14.20
2022-10-03T09:00:38.508Z,14.30
2022-10-03T09:03:45.454Z,14.30
2022-10-03T09:06:48.286Z,14.30
2022-10-03T09:09:55.817Z,14.30
2022-10-03T09:12:42.560Z,14.30
2022-10-03T09:15:58.818Z,14.20
2022-10-03T09:18:51.249Z,14.30
2022-10-03T09:21:56.034Z,14.30
2022-10-03T09:24:56.433Z,14.40
2022-10-03T09:27:43.723Z,14.40
2022-10-03T09:30:43.273Z,14.40
2022-10-03T09:33:46.898Z,14.40
2022-10-03T09:36:58.642Z,14.50
2022-10-03T09:40:11.050Z,14.50
2022-10-03T09:43:07.785Z,14.50
2022-10-03T09:46:12.538Z,14.50
2022-10-03T09:49:21.847Z,14.60
2022-10-03T09:52:08.894Z,14.60
2022-10-03T09:55:05.557Z,14.60
2022-10-03T09:58:04.414Z,14.60
2022-10-03T10:01:05.766Z,14.60
2022-10-03T10:04:28.344Z,14.60
2022-10-03T10:07:43.545Z,14.70
2022-10-03T10:10:41.895Z,14.70
2022-10-03T10:13:44.240Z,14.70
2022-10-03T10:16:54.665Z,14.70
2022-10-03T10:19:55.806Z,14.70
2022-10-03T10:22:55.288Z,14.80
2022-10-03T10:26:00.617Z,14.70
2022-10-03T10:29:10.549Z,14.80
2022-10-03T10:32:25.147Z,14.80
2022-10-03T10:35:32.300Z,14.80
2022-10-03T10:38:30.673Z,14.80
2022-10-03T10:41:35.106Z,14.90
2022-10-03T10:44:48.963Z,14.90
2022-10-03T10:48:13.946Z,14.90
2022-10-03T10:51:30.039Z,15.00
2022-10-03T10:54:31.636Z,15.00
2022-10-03T10:57:25.783Z,15.00
2022-10-03T11:00:22.782Z,15.00
2022-10-03T11:03:40.282Z,15.10
2022-10-03T11:06:44.624Z,15.10
2022-10-03T11:09:37.064Z,15.10
2022-10-03T11:12:58.903Z,15.10
2022-10-03T11:16:04.107Z,15.10
2022-10-03T11:19:19.728Z,15.20
2022-10-03T11:22:37.120Z,15.20
2022-10-03T11:25:52.220Z,15.30
2022-10-03T11:29:00.776Z,15.10
2022-10-03T11:32:09.767Z,15.40
2022-10-03T11:35:29.643Z,15.40
2022-10-03T11:38:06.676Z,15.40
2022-10-03T11:40:45.642Z,15.40
2022-10-03T11:43:47.866Z,15.40
2022-10-03T11:46:24.604Z,15.40
2022-10-03T11:48:58.132Z,15.40
2022-10-03T11:51:40.656Z,15.40
2022-10-03T11:54:31.174Z,15.40
2022-10-03T11:57:08.528Z,15.40
2022-10-03T12:00:00.383Z,15.50
2022-10-03T12:03:00.364Z,15.50
2022-10-03T12:05:44.665Z,15.50
2022-10-03T12:08:40.474Z,15.50
2022-10-03T12:11:19.231Z,15.50
2022-10-03T12:13:59.064Z,15.50
2022-10-03T12:16:31.627Z,15.60
2022-10-03T12:19:10.324Z,15.60
2022-10-03T12:21:51.426Z,15.60
2022-10-03T12:24:26.956Z,15.60
2022-10-03T12:27:05.359Z,15.60
2022-10-03T12:29:37.475Z,15.60
2022-10-03T12:32:19.773Z,15.60
2022-10-03T12:34:58.912Z,15.60
2022-10-03T12:37:44.060Z,15.60
2022-10-03T12:40:25.219Z,15.60
2022-10-03T12:43:06.096Z,15.60
2022-10-03T12:45:39.881Z,15.60
2022-10-03T12:48:29.182Z,15.60
2022-10-03T12:51:04.238Z,15.60
2022-10-03T12:53:49.754Z,15.60
2022-10-03T12:56:29.428Z,15.70
2022-10-03T12:59:15.699Z,15.70
2022-10-03T13:02:08.544Z,15.70
2022-10-03T13:04:45.034Z,15.70
2022-10-03T13:07:28.611Z,15.70
2022-10-03T13:10:14.681Z,15.70
2022-10-03T13:12:51.196Z,15.70
2022-10-03T13:15:49.383Z,15.70
2022-10-03T13:18:43.276Z,15.80
2022-10-03T13:21:43.863Z,15.80
2022-10-03T13:24:16.835Z,15.80
2022-10-03T13:26:57.732Z,15.80
2022-10-03T13:29:35.541Z,15.90
2022-10-03T13:32:18.112Z,15.90
2022-10-03T13:35:24.504Z,16.00
2022-10-03T13:38:37.203Z,16.00
2022-10-03T13:41:18.633Z,16.00
2022-10-03T13:43:52.427Z,16.10
2022-10-03T13:46:29.248Z,16.10
2022-10-03T13:49:02.870Z,16.10
2022-10-03T13:51:44.604Z,16.20
2022-10-03T13:54:21.481Z,16.20
2022-10-03T13:56:57.902Z,16.20
2022-10-03T13:59:49.831Z,16.30
2022-10-03T14:02:51.028Z,16.30
2022-10-03T14:05:45.072Z,16.30
2022-10-03T14:08:25.893Z,16.40
2022-10-03T14:11:18.203Z,16.40
2022-10-03T14:14:01.828Z,16.40
2022-10-03T14:16:34.620Z,16.40
2022-10-03T14:19:19.634Z,16.40
2022-10-03T14:22:15.036Z,16.40
2022-10-03T14:25:01.196Z,16.40
2022-10-03T14:28:02.530Z,16.50
2022-10-03T14:31:05.160Z,16.50
2022-10-03T14:33:45.384Z,16.50
2022-10-03T14:36:27.774Z,16.50
2022-10-03T14:39:09.862Z,16.60
2022-10-03T14:41:57.486Z,16.60
2022-10-03T14:44:38.226Z,16.60
2022-10-03T14:47:12.241Z,16.60
2022-10-03T14:49:56.339Z,16.60
2022-10-03T14:52:34.834Z,16.60
2022-10-03T14:55:14.908Z,16.60
2022-10-03T14:58:09.143Z,16.60
2022-10-03T15:00:43.962Z,16.60
2022-10-03T15:03:25.747Z,16.60
2022-10-03T15:06:01.803Z,16.60
2022-10-03T15:08:39.507Z,16.60
2022-10-03T15:11:16.141Z,16.60
2022-10-03T15:13:49.511Z,16.60
2022-10-03T15:16:23.700Z,16.60
2022-10-03T15:18:56.554Z,16.60
2022-10-03T15:21:29.690Z,16.60
2022-10-03T15:24:03.394Z,16.60
2022-10-03T15:26:37.148Z,16.60
2022-10-03T15:29:08.064Z,16.60
2022-10-03T15:31:37.985Z,16.60
2022-10-03T15:34:14.304Z,16.60
2022-10-03T15:36:46.678Z,16.60
2022-10-03T15:39:21.500Z,16.60
2022-10-03T15:41:55.498Z,16.60
2022-10-03T15:44:33.630Z,16.60
2022-10-03T15:47:09.059Z,16.20
2022-10-03T15:49:40.001Z,16.50
2022-10-03T15:52:16.631Z,16.50
2022-10-03T15:54:49.340Z,16.60
2022-10-03T15:57:27.673Z,16.50
2022-10-03T16:00:02.968Z,16.50
2022-10-03T16:02:42.024Z,16.50
2022-10-03T16:05:20.029Z,16.50
2022-10-03T16:07:59.470Z,16.50
2022-10-03T16:10:32.101Z,16.50
2022-10-03T16:13:07.859Z,16.60
2022-10-03T16:15:53.296Z,16.50
2022-10-03T16:19:01.294Z,16.50
2022-10-03T16:21:48.988Z,16.50
2022-10-03T16:24:31.599Z,16.50
2022-10-03T16:27:09.717Z,16.50
2022-10-03T16:29:44.370Z,16.50
2022-10-03T16:32:20.404Z,16.50
2022-10-03T16:34:50.702Z,16.50
2022-10-03T16:37:22.426Z,16.50
2022-10-03T16:40:01.780Z,16.50
2022-10-03T16:42:40.713Z,16.50
2022-10-03T16:45:23.166Z,16.50
2022-10-03T16:48:13.939Z,16.50
2022-10-03T16:50:49.946Z,16.50
2022-10-03T16:53:19.793Z,16.40
2022-10-03T16:55:53.648Z,16.40
2022-10-03T16:58:27.507Z,16.40
2022-10-03T17:01:26.476Z,16.40
2022-10-03T17:03:56.732Z,16.40
2022-10-03T17:06:30.522Z,16.40
2022-10-03T17:09:03.791Z,16.40
2022-10-03T17:11:36.039Z,16.40
2022-10-03T17:14:08.136Z,16.40
2022-10-03T17:16:45.171Z,16.30
2022-10-03T17:19:27.841Z,16.30
2022-10-03T17:21:59.228Z,16.30
2022-10-03T17:24:38.268Z,16.30
2022-10-03T17:27:15.493Z,16.30
2022-10-03T17:29:49.405Z,16.30
2022-10-03T17:32:23.930Z,16.30
2022-10-03T17:35:01.765Z,16.30
2022-10-03T17:38:01.801Z,16.20
2022-10-03T17:40:51.267Z,16.20
2022-10-03T17:43:28.488Z,16.20
2022-10-03T17:46:06.549Z,16.20
2022-10-03T17:48:42.846Z,16.20
2022-10-03T17:51:35.922Z,16.20
2022-10-03T17:54:10.070Z,16.20
2022-10-03T17:56:44.771Z,16.20
2022-10-03T17:59:20.752Z,16.20
2022-10-03T18:01:58.018Z,15.90
2022-10-03T18:04:36.570Z,16.10
2022-10-03T18:07:10.270Z,16.10
2022-10-03T18:09:45.625Z,16.10
2022-10-03T18:12:22.238Z,16.10
2022-10-03T18:15:23.830Z,16.10
2022-10-03T18:18:05.373Z,16.10
2022-10-03T18:20:46.875Z,16.10
2022-10-03T18:23:49.925Z,16.10
2022-10-03T18:26:23.961Z,16.10
2022-10-03T18:29:02.142Z,16.00
2022-10-03T18:31:35.081Z,16.00
2022-10-03T18:34:13.820Z,16.00
2022-10-03T18:36:49.033Z,16.00
2022-10-03T18:39:19.924Z,16.00
2022-10-03T18:41:50.643Z,16.00
2022-10-03T18:44:21.196Z,16.00
2022-10-03T18:46:54.568Z,15.90
2022-10-03T18:49:35.108Z,16.00
2022-10-03T18:52:11.706Z,15.90
2022-10-03T18:54:55.443Z,15.90
2022-10-03T18:57:27.823Z,15.90
2022-10-03T19:00:02.341Z,15.90
2022-10-03T19:02:37.677Z,15.90
2022-10-03T19:05:12.501Z,15.90
2022-10-03T19:07:52.007Z,15.90
2022-10-03T19:10:35.341Z,15.90
2022-10-03T19:13:12.958Z,15.80
2022-10-03T19:16:06.960Z,15.80
2022-10-03T19:18:43.209Z,15.90
2022-10-03T19:21:18.711Z,15.80
2022-10-03T19:23:52.462Z,15.80
2022-10-03T19:26:26.206Z,15.80
2022-10-03T19:28:59.238Z,15.80
2022-10-03T19:31:32.723Z,15.80
2022-10-03T19:34:04.864Z,15.80
2022-10-03T19:36:37.975Z,15.80
2022-10-03T19:39:15.488Z,15.80
2022-10-03T19:41:52.319Z,15.80
2022-10-03T19:44:24.184Z,15.70
2022-10-03T19:47:10.890Z,15.70
2022-10-03T19:49:49.190Z,15.70
2022-10-03T19:52:32.293Z,15.80
2022-10-03T19:55:06.218Z,15.80
2022-10-03T19:57:42.908Z,15.80
2022-10-03T20:00:43.638Z,15.70
2022-10-03T20:03:21.559Z,15.70
2022-10-03T20:05:58.712Z,15.70
2022-10-03T20:08:39.921Z,15.70
2022-10-03T20:11:21.415Z,15.70
2022-10-03T20:13:50.839Z,15.60
2022-10-03T20:16:23.185Z,15.70
2022-10-03T20:18:54.859Z,15.60
2022-10-03T20:21:27.464Z,15.60
2022-10-03T20:23:56.849Z,15.60
2022-10-03T20:26:35.343Z,15.60
2022-10-03T20:29:18.260Z,15.60
2022-10-03T20:31:48.057Z,15.60
2022-10-03T20:34:21.991Z,15.50
2022-10-03T20:36:57.396Z,15.50
2022-10-03T20:39:29.712Z,15.40
2022-10-03T20:42:06.304Z,15.40
2022-10-03T20:44:51.775Z,15.50
2022-10-03T20:47:36.457Z,15.40
2022-10-03T20:50:11.798Z,15.40
2022-10-03T20:52:40.173Z,15.40
2022-10-03T20:55:18.983Z,15.40
2022-10-03T20:57:59.917Z,15.30
2022-10-03T21:00:29.506Z,15.40
2022-10-03T21:03:05.006Z,15.30
2022-10-03T21:05:37.344Z,15.30
2022-10-03T21:08:12.320Z,15.30
2022-10-03T21:10:45.784Z,15.30
2022-10-03T21:13:20.999Z,15.30
2022-10-03T21:15:51.769Z,15.30
2022-10-03T21:18:23.589Z,15.30
2022-10-03T21:21:02.464Z,15.20
2022-10-03T21:23:33.221Z,15.30
2022-10-03T21:26:01.697Z,15.20
2022-10-03T21:28:34.168Z,15.20
2022-10-03T21:31:20.815Z,15.20
2022-10-03T21:33:56.742Z,15.20
2022-10-03T21:36:32.071Z,15.20
2022-10-03T21:39:09.653Z,15.20
2022-10-03T21:41:46.377Z,15.20
2022-10-03T21:44:35.284Z,15.20
2022-10-03T21:47:12.655Z,15.20
2022-10-03T21:49:52.691Z,15.20
2022-10-03T21:52:44.210Z,15.20
2022-10-03T21:55:51.681Z,15.20
2022-10-03T21:58:39.746Z,15.20
2022-10-03T22:01:17.194Z,15.20
2022-10-03T22:03:52.630Z,15.40
2022-10-03T22:06:25.631Z,15.20
2022-10-03T22:08:54.867Z,15.20
2022-10-03T22:11:35.151Z,15.20
2022-10-03T22:14:12.729Z,15.10
2022-10-03T22:16:52.139Z,15.20
2022-10-03T22:19:26.423Z,15.20
2022-10-03T22:22:06.674Z,15.20
2022-10-03T22:24:47.691Z,15.10
2022-10-03T22:27:21.635Z,15.10
2022-10-03T22:29:58.992Z,15.20
2022-10-03T22:32:35.213Z,15.10
2022-10-03T22:35:15.514Z,15.10
2022-10-03T22:37:43.882Z,15.10
2022-10-03T22:40:13.701Z,15.10
2022-10-03T22:42:46.469Z,15.10
2022-10-03T22:45:17.024Z,15.10
2022-10-03T22:47:52.961Z,15.10
2022-10-03T22:50:26.494Z,15.10
2022-10-03T22:52:55.027Z,15.10
2022-10-03T22:55:26.162Z,15.10
2022-10-03T22:57:56.184Z,15.10
2022-10-03T23:00:25.662Z,15.10
2022-10-03T23:03:06.312Z,15.10
2022-10-03T23:05:54.923Z,15.10
2022-10-03T23:08:33.599Z,15.10
2022-10-03T23:11:05.347Z,15.10
2022-10-03T23:13:39.914Z,15.10
2022-10-03T23:16:23.444Z,15.10
2022-10-03T23:19:12.483Z,15.10
2022-10-03T23:21:47.337Z,15.10
2022-10-03T23:24:23.745Z,15.10
2022-10-03T23:27:09.740Z,15.10
2022-10-03T23:29:38.065Z,15.10
2022-10-03T23:32:07.549Z,15.10
2022-10-03T23:35:13.415Z,15.10
2022-10-03T23:37:44.118Z,15.10
2022-10-03T23:40:29.624Z,15.10
2022-10-03T23:43:06.124Z,15.10
2022-10-03T23:45:36.349Z,15.10
2022-10-03T23:48:07.457Z,15.10
2022-10-03T23:50:42.245Z,15.10
2022-10-03T23:53:25.073Z,15.10
2022-10-03T23:55:53.193Z,15.10
2022-10-03T23:58:27.196Z,15.10
